sensor_id;sensor_type;location;lat;lon;timestamp;pressure;altitude;pressure_sealevel;temperature;humidity
23172;BME280;11754;42.664;23.594;2022-11-20T00:00:23;94753.19;;;14.39;78.72
23172;BME280;11754;42.664;23.594;2022-11-20T00:02:49;94738.06;;;14.46;78.06
23172;BME280;11754;42.664;23.594;2022-11-20T00:05:14;94741.16;;;14.50;77.69
23172;BME280;11754;42.664;23.594;2022-11-20T00:07:40;94753.16;;;14.52;77.78
23172;BME280;11754;42.664;23.594;2022-11-20T00:10:05;94744.63;;;14.50;77.89
23172;BME280;11754;42.664;23.594;2022-11-20T00:12:31;94737.25;;;14.52;77.54
23172;BME280;11754;42.664;23.594;2022-11-20T00:14:56;94731.13;;;14.58;77.42
23172;BME280;11754;42.664;23.594;2022-11-20T00:17:22;94748.25;;;14.62;77.12
23172;BME280;11754;42.664;23.594;2022-11-20T00:19:48;94742.13;;;14.62;76.63
23172;BME280;11754;42.664;23.594;2022-11-20T00:22:13;94722.94;;;14.53;76.57
23172;BME280;11754;42.664;23.594;2022-11-20T00:39:22;94707.50;;;14.30;77.59
23172;BME280;11754;42.664;23.594;2022-11-20T00:41:47;94723.63;;;14.29;77.97
23172;BME280;11754;42.664;23.594;2022-11-20T00:44:12;94731.56;;;14.29;78.38
23172;BME280;11754;42.664;23.594;2022-11-20T00:46:38;94724.25;;;14.17;78.67
23172;BME280;11754;42.664;23.594;2022-11-20T00:49:03;94722.22;;;14.06;78.87
23172;BME280;11754;42.664;23.594;2022-11-20T00:51:28;94763.41;;;14.29;78.37
23172;BME280;11754;42.664;23.594;2022-11-20T00:53:57;94758.50;;;14.26;78.15
23172;BME280;11754;42.664;23.594;2022-11-20T00:56:25;94692.84;;;14.14;78.36
23172;BME280;11754;42.664;23.594;2022-11-20T00:58:50;94695.69;;;14.06;78.89
23172;BME280;11754;42.664;23.594;2022-11-20T01:01:17;94732.56;;;14.28;78.22
23172;BME280;11754;42.664;23.594;2022-11-20T01:03:46;94718.09;;;14.24;77.99
23172;BME280;11754;42.664;23.594;2022-11-20T01:06:14;94683.44;;;14.18;78.52
23172;BME280;11754;42.664;23.594;2022-11-20T01:08:40;94710.78;;;14.26;78.31
23172;BME280;11754;42.664;23.594;2022-11-20T01:11:09;94721.34;;;14.39;77.63
23172;BME280;11754;42.664;23.594;2022-11-20T01:13:36;94698.53;;;14.25;77.96
23172;BME280;11754;42.664;23.594;2022-11-20T01:16:12;94686.28;;;14.24;78.01
23172;BME280;11754;42.664;23.594;2022-11-20T01:18:41;94743.00;;;14.09;78.24
23172;BME280;11754;42.664;23.594;2022-11-20T01:21:12;94706.75;;;13.97;79.08
23172;BME280;11754;42.664;23.594;2022-11-20T01:23:40;94708.38;;;13.91;79.42
23172;BME280;11754;42.664;23.594;2022-11-20T01:26:08;94709.75;;;14.13;72.40
23172;BME280;11754;42.664;23.594;2022-11-20T01:28:34;94681.81;;;14.17;77.07
23172;BME280;11754;42.664;23.594;2022-11-20T01:31:00;94692.44;;;14.17;77.63
23172;BME280;11754;42.664;23.594;2022-11-20T01:33:26;94692.03;;;14.07;78.22
23172;BME280;11754;42.664;23.594;2022-11-20T01:35:52;94648.38;;;14.10;76.98
23172;BME280;11754;42.664;23.594;2022-11-20T01:38:18;94679.38;;;14.09;77.09
23172;BME280;11754;42.664;23.594;2022-11-20T01:40:45;94676.13;;;14.07;77.65
23172;BME280;11754;42.664;23.594;2022-11-20T01:43:17;94652.06;;;14.02;77.73
23172;BME280;11754;42.664;23.594;2022-11-20T01:48:42;94646.00;;;13.82;79.02
23172;BME280;11754;42.664;23.594;2022-11-20T01:51:18;94663.53;;;13.63;79.48
23172;BME280;11754;42.664;23.594;2022-11-20T01:53:46;94646.00;;;13.68;79.06
23172;BME280;11754;42.664;23.594;2022-11-20T01:56:13;94655.38;;;13.64;79.85
23172;BME280;11754;42.664;23.594;2022-11-20T01:58:43;94664.56;;;13.55;80.03
23172;BME280;11754;42.664;23.594;2022-11-20T02:01:12;94652.53;;;13.53;80.22
23172;BME280;11754;42.664;23.594;2022-11-20T02:03:38;94659.47;;;13.47;80.39
23172;BME280;11754;42.664;23.594;2022-11-20T02:06:13;94621.38;;;13.35;80.65
23172;BME280;11754;42.664;23.594;2022-11-20T02:08:40;94657.03;;;13.39;80.79
23172;BME280;11754;42.664;23.594;2022-11-20T02:11:06;94642.75;;;13.40;80.77
23172;BME280;11754;42.664;23.594;2022-11-20T02:13:31;94647.84;;;13.35;80.67
23172;BME280;11754;42.664;23.594;2022-11-20T02:16:37;94629.72;;;13.38;80.83
23172;BME280;11754;42.664;23.594;2022-11-20T02:19:02;94645.81;;;13.37;80.51
23172;BME280;11754;42.664;23.594;2022-11-20T02:24:00;94643.56;;;13.47;80.27
23172;BME280;11754;42.664;23.594;2022-11-20T02:26:28;94652.94;;;13.56;79.77
23172;BME280;11754;42.664;23.594;2022-11-20T02:28:54;94646.81;;;13.56;79.65
23172;BME280;11754;42.664;23.594;2022-11-20T02:31:20;94654.16;;;13.60;79.41
23172;BME280;11754;42.664;23.594;2022-11-20T02:33:45;94648.88;;;13.60;79.35
23172;BME280;11754;42.664;23.594;2022-11-20T02:36:14;94656.59;;;13.62;79.18
23172;BME280;11754;42.664;23.594;2022-11-20T02:38:41;94639.50;;;13.64;78.92
23172;BME280;11754;42.664;23.594;2022-11-20T02:41:07;94654.97;;;13.54;79.18
23172;BME280;11754;42.664;23.594;2022-11-20T02:43:32;94658.66;;;13.53;79.14
23172;BME280;11754;42.664;23.594;2022-11-20T02:45:58;94661.50;;;13.52;79.50
23172;BME280;11754;42.664;23.594;2022-11-20T02:48:23;94641.53;;;13.42;79.09
23172;BME280;11754;42.664;23.594;2022-11-20T02:50:49;94644.59;;;13.46;78.73
23172;BME280;11754;42.664;23.594;2022-11-20T02:53:14;94661.31;;;13.53;78.87
23172;BME280;11754;42.664;23.594;2022-11-20T02:55:39;94662.72;;;13.62;78.61
23172;BME280;11754;42.664;23.594;2022-11-20T02:58:05;94672.09;;;13.65;78.52
23172;BME280;11754;42.664;23.594;2022-11-20T03:00:30;94679.03;;;13.73;78.05
23172;BME280;11754;42.664;23.594;2022-11-20T03:02:57;94675.38;;;13.67;78.10
23172;BME280;11754;42.664;23.594;2022-11-20T03:05:22;94681.88;;;13.64;77.88
23172;BME280;11754;42.664;23.594;2022-11-20T03:07:48;94672.09;;;13.72;77.97
23172;BME280;11754;42.664;23.594;2022-11-20T03:10:13;94672.50;;;13.68;75.03
23172;BME280;11754;42.664;23.594;2022-11-20T03:12:39;94667.31;;;14.20;69.55
23172;BME280;11754;42.664;23.594;2022-11-20T03:15:04;94691.81;;;14.87;64.03
23172;BME280;11754;42.664;23.594;2022-11-20T03:17:30;94700.13;;;15.92;57.98
23172;BME280;11754;42.664;23.594;2022-11-20T03:19:56;94700.19;;;16.66;54.86
23172;BME280;11754;42.664;23.594;2022-11-20T03:22:21;94684.22;;;17.02;54.25
23172;BME280;11754;42.664;23.594;2022-11-20T03:24:47;94695.22;;;17.36;52.74
23172;BME280;11754;42.664;23.594;2022-11-20T03:27:12;94696.91;;;17.61;52.17
23172;BME280;11754;42.664;23.594;2022-11-20T03:29:37;94698.13;;;17.76;51.67
23172;BME280;11754;42.664;23.594;2022-11-20T03:32:03;94704.25;;;17.77;52.10
23172;BME280;11754;42.664;23.594;2022-11-20T03:34:28;94714.97;;;18.00;49.81
23172;BME280;11754;42.664;23.594;2022-11-20T03:36:54;94691.53;;;18.26;48.04
23172;BME280;11754;42.664;23.594;2022-11-20T03:39:19;94702.00;;;18.39;48.92
23172;BME280;11754;42.664;23.594;2022-11-20T03:41:44;94696.97;;;18.55;47.95
23172;BME280;11754;42.664;23.594;2022-11-20T03:44:11;94713.22;;;18.65;48.03
23172;BME280;11754;42.664;23.594;2022-11-20T03:46:37;94715.75;;;18.60;48.36
23172;BME280;11754;42.664;23.594;2022-11-20T03:49:03;94713.56;;;18.68;47.46
23172;BME280;11754;42.664;23.594;2022-11-20T03:51:33;94711.44;;;18.70;47.67
23172;BME280;11754;42.664;23.594;2022-11-20T03:54:01;94703.09;;;18.67;48.07
23172;BME280;11754;42.664;23.594;2022-11-20T03:56:33;94711.81;;;18.74;47.55
23172;BME280;11754;42.664;23.594;2022-11-20T03:58:59;94704.41;;;18.76;47.30
23172;BME280;11754;42.664;23.594;2022-11-20T04:01:27;94681.72;;;18.79;46.84
23172;BME280;11754;42.664;23.594;2022-11-20T04:03:53;94687.31;;;18.77;47.25
23172;BME280;11754;42.664;23.594;2022-11-20T04:06:28;94694.50;;;18.77;47.52
23172;BME280;11754;42.664;23.594;2022-11-20T04:08:55;94702.28;;;18.78;46.97
23172;BME280;11754;42.664;23.594;2022-11-20T04:11:29;94691.94;;;18.82;46.96
23172;BME280;11754;42.664;23.594;2022-11-20T04:14:00;94690.66;;;18.84;45.84
23172;BME280;11754;42.664;23.594;2022-11-20T04:16:28;94672.97;;;18.95;45.88
23172;BME280;11754;42.664;23.594;2022-11-20T04:18:56;94685.53;;;18.94;45.65
23172;BME280;11754;42.664;23.594;2022-11-20T04:21:23;94689.44;;;19.04;46.00
23172;BME280;11754;42.664;23.594;2022-11-20T04:23:49;94678.06;;;18.96;45.86
23172;BME280;11754;42.664;23.594;2022-11-20T04:26:14;94709.56;;;18.94;46.17
23172;BME280;11754;42.664;23.594;2022-11-20T04:28:40;94703.97;;;18.96;45.71
23172;BME280;11754;42.664;23.594;2022-11-20T04:31:07;94704.91;;;19.02;46.65
23172;BME280;11754;42.664;23.594;2022-11-20T04:33:34;94703.63;;;18.92;46.22
23172;BME280;11754;42.664;23.594;2022-11-20T04:36:04;94706.19;;;18.99;46.33
23172;BME280;11754;42.664;23.594;2022-11-20T04:38:31;94714.78;;;18.89;47.65
23172;BME280;11754;42.664;23.594;2022-11-20T04:41:02;94702.75;;;18.75;47.95
23172;BME280;11754;42.664;23.594;2022-11-20T04:43:29;94717.72;;;18.64;49.68
23172;BME280;11754;42.664;23.594;2022-11-20T04:45:55;94727.25;;;18.48;50.15
23172;BME280;11754;42.664;23.594;2022-11-20T04:48:21;94722.63;;;18.44;50.92
23172;BME280;11754;42.664;23.594;2022-11-20T04:50:47;94706.28;;;18.40;51.07
23172;BME280;11754;42.664;23.594;2022-11-20T04:53:12;94700.59;;;18.25;52.71
23172;BME280;11754;42.664;23.594;2022-11-20T04:55:38;94706.41;;;18.22;52.26
23172;BME280;11754;42.664;23.594;2022-11-20T04:58:03;94701.38;;;18.14;52.84
23172;BME280;11754;42.664;23.594;2022-11-20T05:00:28;94705.09;;;18.13;52.50
23172;BME280;11754;42.664;23.594;2022-11-20T05:02:54;94676.91;;;18.05;52.37
23172;BME280;11754;42.664;23.594;2022-11-20T05:05:19;94677.50;;;18.07;53.47
23172;BME280;11754;42.664;23.594;2022-11-20T05:07:45;94696.75;;;17.97;53.78
23172;BME280;11754;42.664;23.594;2022-11-20T05:10:10;94680.63;;;18.04;50.64
23172;BME280;11754;42.664;23.594;2022-11-20T05:12:36;94697.59;;;18.21;52.14
23172;BME280;11754;42.664;23.594;2022-11-20T05:15:01;94704.28;;;18.12;50.76
23172;BME280;11754;42.664;23.594;2022-11-20T05:17:26;94696.41;;;18.17;50.89
23172;BME280;11754;42.664;23.594;2022-11-20T05:19:52;94726.47;;;18.13;56.82
23172;BME280;11754;42.664;23.594;2022-11-20T05:22:17;94727.75;;;17.57;56.31
23172;BME280;11754;42.664;23.594;2022-11-20T05:24:42;94743.13;;;17.54;57.64
23172;BME280;11754;42.664;23.594;2022-11-20T05:27:08;94729.75;;;17.31;63.94
23172;BME280;11754;42.664;23.594;2022-11-20T05:29:34;94719.78;;;16.34;70.88
23172;BME280;11754;42.664;23.594;2022-11-20T05:31:59;94715.78;;;15.75;75.84
23172;BME280;11754;42.664;23.594;2022-11-20T05:34:25;94716.00;;;15.42;77.15
23172;BME280;11754;42.664;23.594;2022-11-20T05:36:50;94693.28;;;15.14;76.56
23172;BME280;11754;42.664;23.594;2022-11-20T05:39:15;94693.72;;;15.11;76.81
23172;BME280;11754;42.664;23.594;2022-11-20T05:41:41;94695.59;;;15.36;74.91
23172;BME280;11754;42.664;23.594;2022-11-20T05:44:06;94699.50;;;15.65;73.54
23172;BME280;11754;42.664;23.594;2022-11-20T05:46:32;94695.72;;;15.79;72.63
23172;BME280;11754;42.664;23.594;2022-11-20T05:48:57;94711.56;;;15.93;71.64
23172;BME280;11754;42.664;23.594;2022-11-20T05:51:24;94705.44;;;15.92;69.81
23172;BME280;11754;42.664;23.594;2022-11-20T05:53:49;94693.88;;;16.05;69.16
23172;BME280;11754;42.664;23.594;2022-11-20T05:56:17;94693.66;;;16.25;66.23
23172;BME280;11754;42.664;23.594;2022-11-20T05:58:44;94692.19;;;16.47;63.29
23172;BME280;11754;42.664;23.594;2022-11-20T06:01:21;94692.78;;;16.68;62.95
23172;BME280;11754;42.664;23.594;2022-11-20T06:03:47;94700.88;;;16.79;61.98
23172;BME280;11754;42.664;23.594;2022-11-20T06:06:15;94697.09;;;16.87;62.18
23172;BME280;11754;42.664;23.594;2022-11-20T06:08:41;94668.84;;;16.86;62.03
23172;BME280;11754;42.664;23.594;2022-11-20T06:11:09;94702.25;;;17.00;61.54
23172;BME280;11754;42.664;23.594;2022-11-20T06:13:35;94664.84;;;16.95;64.35
23172;BME280;11754;42.664;23.594;2022-11-20T06:16:02;94681.66;;;16.59;65.56
23172;BME280;11754;42.664;23.594;2022-11-20T06:18:28;94668.34;;;16.59;63.59
23172;BME280;11754;42.664;23.594;2022-11-20T06:21:17;94682.97;;;16.87;61.90
23172;BME280;11754;42.664;23.594;2022-11-20T06:23:43;94686.28;;;17.00;60.31
23172;BME280;11754;42.664;23.594;2022-11-20T06:26:10;94682.13;;;17.04;59.31
23172;BME280;11754;42.664;23.594;2022-11-20T06:28:36;94706.66;;;17.25;58.93
23172;BME280;11754;42.664;23.594;2022-11-20T06:31:03;94707.38;;;17.32;59.64
23172;BME280;11754;42.664;23.594;2022-11-20T06:33:29;94713.75;;;17.31;59.21
23172;BME280;11754;42.664;23.594;2022-11-20T06:35:59;94710.03;;;17.32;58.79
23172;BME280;11754;42.664;23.594;2022-11-20T06:38:25;94723.03;;;17.40;57.67
23172;BME280;11754;42.664;23.594;2022-11-20T06:40:51;94709.97;;;17.50;56.68
23172;BME280;11754;42.664;23.594;2022-11-20T06:43:16;94706.97;;;17.59;56.52
23172;BME280;11754;42.664;23.594;2022-11-20T06:45:42;94716.59;;;17.60;56.44
23172;BME280;11754;42.664;23.594;2022-11-20T06:48:08;94711.25;;;17.60;56.92
23172;BME280;11754;42.664;23.594;2022-11-20T06:50:35;94704.31;;;17.59;56.39
23172;BME280;11754;42.664;23.594;2022-11-20T06:53:01;94710.81;;;17.63;55.25
23172;BME280;11754;42.664;23.594;2022-11-20T06:55:28;94708.75;;;17.65;55.38
23172;BME280;11754;42.664;23.594;2022-11-20T06:57:53;94700.28;;;17.68;55.49
23172;BME280;11754;42.664;23.594;2022-11-20T07:00:19;94705.31;;;17.76;55.73
23172;BME280;11754;42.664;23.594;2022-11-20T07:02:44;94718.41;;;17.77;56.01
23172;BME280;11754;42.664;23.594;2022-11-20T07:05:09;94711.53;;;17.70;56.37
23172;BME280;11754;42.664;23.594;2022-11-20T07:07:35;94702.94;;;17.68;55.72
23172;BME280;11754;42.664;23.594;2022-11-20T07:10:00;94719.25;;;17.78;54.81
23172;BME280;11754;42.664;23.594;2022-11-20T07:12:26;94719.94;;;17.85;53.45
23172;BME280;11754;42.664;23.594;2022-11-20T07:14:51;94715.63;;;17.84;53.43
23172;BME280;11754;42.664;23.594;2022-11-20T07:17:16;94720.66;;;17.92;54.05
23172;BME280;11754;42.664;23.594;2022-11-20T07:19:42;94730.75;;;18.02;53.71
23172;BME280;11754;42.664;23.594;2022-11-20T07:22:08;94719.59;;;18.05;54.17
23172;BME280;11754;42.664;23.594;2022-11-20T07:24:33;94727.63;;;18.17;53.37
23172;BME280;11754;42.664;23.594;2022-11-20T07:27:00;94724.97;;;18.29;52.79
23172;BME280;11754;42.664;23.594;2022-11-20T07:29:25;94745.50;;;18.52;52.99
23172;BME280;11754;42.664;23.594;2022-11-20T07:31:51;94741.88;;;18.69;51.11
23172;BME280;11754;42.664;23.594;2022-11-20T07:34:16;94738.97;;;18.94;51.54
23172;BME280;11754;42.664;23.594;2022-11-20T07:36:41;94726.72;;;19.10;51.82
23172;BME280;11754;42.664;23.594;2022-11-20T07:39:07;94734.03;;;19.15;55.46
23172;BME280;11754;42.664;23.594;2022-11-20T07:41:32;94738.72;;;19.08;56.83
23172;BME280;11754;42.664;23.594;2022-11-20T07:43:58;94730.38;;;18.92;57.39
23172;BME280;11754;42.664;23.594;2022-11-20T07:46:23;94751.63;;;18.87;58.08
23172;BME280;11754;42.664;23.594;2022-11-20T07:48:49;94755.03;;;18.71;58.15
23172;BME280;11754;42.664;23.594;2022-11-20T07:51:14;94751.06;;;18.62;58.08
23172;BME280;11754;42.664;23.594;2022-11-20T07:53:39;94752.69;;;18.63;57.34
23172;BME280;11754;42.664;23.594;2022-11-20T07:56:05;94753.75;;;18.62;56.61
23172;BME280;11754;42.664;23.594;2022-11-20T07:58:31;94758.28;;;18.73;57.08
23172;BME280;11754;42.664;23.594;2022-11-20T08:01:02;94760.59;;;18.81;57.08
23172;BME280;11754;42.664;23.594;2022-11-20T08:03:30;94763.16;;;18.76;56.47
23172;BME280;11754;42.664;23.594;2022-11-20T08:05:58;94758.72;;;18.70;56.60
23172;BME280;11754;42.664;23.594;2022-11-20T08:08:25;94771.72;;;18.66;56.50
23172;BME280;11754;42.664;23.594;2022-11-20T08:10:51;94777.19;;;18.60;56.78
23172;BME280;11754;42.664;23.594;2022-11-20T08:13:16;94775.19;;;18.67;56.97
23172;BME280;11754;42.664;23.594;2022-11-20T08:16:00;94766.41;;;18.90;56.45
23172;BME280;11754;42.664;23.594;2022-11-20T08:18:25;94780.03;;;19.17;55.60
23172;BME280;11754;42.664;23.594;2022-11-20T08:20:51;94773.00;;;19.39;55.05
23172;BME280;11754;42.664;23.594;2022-11-20T08:23:16;94763.13;;;19.68;54.77
23172;BME280;11754;42.664;23.594;2022-11-20T08:25:41;94756.59;;;19.93;54.41
23172;BME280;11754;42.664;23.594;2022-11-20T08:28:08;94742.50;;;20.14;54.17
23172;BME280;11754;42.664;23.594;2022-11-20T08:30:35;94753.22;;;20.31;53.62
23172;BME280;11754;42.664;23.594;2022-11-20T08:33:07;94753.88;;;20.38;53.10
23172;BME280;11754;42.664;23.594;2022-11-20T08:35:37;94748.50;;;20.38;53.38
23172;BME280;11754;42.664;23.594;2022-11-20T08:38:04;94734.63;;;20.42;53.43
23172;BME280;11754;42.664;23.594;2022-11-20T08:40:30;94739.25;;;20.63;52.70
23172;BME280;11754;42.664;23.594;2022-11-20T08:42:55;94734.47;;;20.87;52.49
23172;BME280;11754;42.664;23.594;2022-11-20T08:45:20;94726.50;;;20.92;52.38
23172;BME280;11754;42.664;23.594;2022-11-20T08:47:46;94733.78;;;20.97;52.40
23172;BME280;11754;42.664;23.594;2022-11-20T08:50:14;94731.16;;;21.24;51.27
23172;BME280;11754;42.664;23.594;2022-11-20T08:52:40;94735.41;;;21.42;51.15
23172;BME280;11754;42.664;23.594;2022-11-20T08:55:06;94734.38;;;21.43;51.98
23172;BME280;11754;42.664;23.594;2022-11-20T08:57:32;94737.06;;;21.43;51.82
23172;BME280;11754;42.664;23.594;2022-11-20T08:59:58;94740.84;;;21.47;51.69
23172;BME280;11754;42.664;23.594;2022-11-20T09:02:24;94744.47;;;21.35;50.91
23172;BME280;11754;42.664;23.594;2022-11-20T09:04:49;94757.16;;;21.23;51.13
23172;BME280;11754;42.664;23.594;2022-11-20T09:07:15;94758.47;;;20.99;51.68
23172;BME280;11754;42.664;23.594;2022-11-20T09:09:40;94762.50;;;20.79;52.06
23172;BME280;11754;42.664;23.594;2022-11-20T09:12:05;94766.19;;;20.39;53.04
23172;BME280;11754;42.664;23.594;2022-11-20T09:14:31;94782.56;;;20.26;53.69
23172;BME280;11754;42.664;23.594;2022-11-20T09:16:57;94789.88;;;20.14;54.25
23172;BME280;11754;42.664;23.594;2022-11-20T09:19:23;94787.69;;;20.11;54.41
23172;BME280;11754;42.664;23.594;2022-11-20T09:21:49;94782.56;;;19.92;56.23
23172;BME280;11754;42.664;23.594;2022-11-20T09:24:14;94784.81;;;19.84;57.07
23172;BME280;11754;42.664;23.594;2022-11-20T09:26:39;94785.84;;;19.66;59.05
23172;BME280;11754;42.664;23.594;2022-11-20T09:29:05;94776.53;;;19.57;59.92
23172;BME280;11754;42.664;23.594;2022-11-20T09:31:31;94768.97;;;19.54;60.58
23172;BME280;11754;42.664;23.594;2022-11-20T09:33:56;94762.09;;;19.29;60.94
23172;BME280;11754;42.664;23.594;2022-11-20T09:36:22;94787.59;;;19.20;61.40
23172;BME280;11754;42.664;23.594;2022-11-20T09:38:54;94797.34;;;19.14;61.66
23172;BME280;11754;42.664;23.594;2022-11-20T09:46:53;94781.94;;;18.69;64.58
23172;BME280;11754;42.664;23.594;2022-11-20T09:52:09;94804.75;;;18.72;64.36
23172;BME280;11754;42.664;23.594;2022-11-20T09:54:40;94766.84;;;18.52;65.00
23172;BME280;11754;42.664;23.594;2022-11-20T09:57:12;94770.44;;;18.22;66.01
23172;BME280;11754;42.664;23.594;2022-11-20T09:59:43;94784.72;;;18.16;66.54
23172;BME280;11754;42.664;23.594;2022-11-20T10:04:55;94804.63;;;18.01;67.00
23172;BME280;11754;42.664;23.594;2022-11-20T10:07:41;94787.81;;;17.89;67.40
23172;BME280;11754;42.664;23.594;2022-11-20T10:18:58;94766.00;;;17.32;69.66
23172;BME280;11754;42.664;23.594;2022-11-20T10:24:41;94771.81;;;17.11;71.23
23172;BME280;11754;42.664;23.594;2022-11-20T10:29:46;94766.50;;;16.92;72.46
23172;BME280;11754;42.664;23.594;2022-11-20T10:32:18;94759.81;;;16.83;73.18
23172;BME280;11754;42.664;23.594;2022-11-20T10:34:58;94760.34;;;16.73;73.91
23172;BME280;11754;42.664;23.594;2022-11-20T10:37:26;94739.09;;;16.67;74.24
23172;BME280;11754;42.664;23.594;2022-11-20T10:40:00;94739.47;;;16.70;74.45
23172;BME280;11754;42.664;23.594;2022-11-20T10:42:46;94724.31;;;16.71;74.70
23172;BME280;11754;42.664;23.594;2022-11-20T10:47:56;94710.59;;;16.74;74.99
23172;BME280;11754;42.664;23.594;2022-11-20T10:50:34;94716.53;;;16.69;75.06
23172;BME280;11754;42.664;23.594;2022-11-20T10:55:44;94721.41;;;16.72;75.01
23172;BME280;11754;42.664;23.594;2022-11-20T11:00:39;94720.13;;;16.81;74.65
23172;BME280;11754;42.664;23.594;2022-11-20T11:03:36;94697.09;;;16.87;74.58
23172;BME280;11754;42.664;23.594;2022-11-20T11:08:43;94717.16;;;17.20;73.56
23172;BME280;11754;42.664;23.594;2022-11-20T11:11:22;94710.47;;;17.29;73.00
23172;BME280;11754;42.664;23.594;2022-11-20T11:13:48;94719.84;;;17.50;72.38
23172;BME280;11754;42.664;23.594;2022-11-20T11:16:25;94708.03;;;17.58;71.71
23172;BME280;11754;42.664;23.594;2022-11-20T11:18:52;94713.25;;;17.64;71.45
23172;BME280;11754;42.664;23.594;2022-11-20T11:21:28;94730.69;;;17.48;71.87
23172;BME280;11754;42.664;23.594;2022-11-20T11:24:01;94725.09;;;17.08;73.39
23172;BME280;11754;42.664;23.594;2022-11-20T11:26:27;94750.47;;;16.80;75.53
23172;BME280;11754;42.664;23.594;2022-11-20T11:28:57;94771.66;;;16.44;77.33
23172;BME280;11754;42.664;23.594;2022-11-20T11:31:28;94783.59;;;16.41;78.15
23172;BME280;11754;42.664;23.594;2022-11-20T11:34:13;94793.47;;;16.34;78.54
23172;BME280;11754;42.664;23.594;2022-11-20T11:36:40;94793.84;;;16.38;78.18
23172;BME280;11754;42.664;23.594;2022-11-20T11:39:09;94793.78;;;16.44;77.49
23172;BME280;11754;42.664;23.594;2022-11-20T11:41:36;94783.06;;;16.51;77.65
23172;BME280;11754;42.664;23.594;2022-11-20T11:44:23;94788.78;;;16.54;77.73
23172;BME280;11754;42.664;23.594;2022-11-20T11:50:17;94796.53;;;16.38;79.18
23172;BME280;11754;42.664;23.594;2022-11-20T11:53:05;94809.13;;;16.24;79.79
23172;BME280;11754;42.664;23.594;2022-11-20T11:55:37;94832.19;;;16.05;80.99
23172;BME280;11754;42.664;23.594;2022-11-20T12:03:44;94839.91;;;15.36;85.33
23172;BME280;11754;42.664;23.594;2022-11-20T12:06:16;94836.47;;;15.29;85.87
23172;BME280;11754;42.664;23.594;2022-11-20T12:11:44;94804.28;;;15.51;85.83
23172;BME280;11754;42.664;23.594;2022-11-20T12:16:40;94793.59;;;15.57;81.17
23172;BME280;11754;42.664;23.594;2022-11-20T12:19:13;94809.09;;;15.60;78.10
23172;BME280;11754;42.664;23.594;2022-11-20T12:24:54;94799.44;;;15.34;73.32
23172;BME280;11754;42.664;23.594;2022-11-20T12:32:40;94811.44;;;14.92;67.77
23172;BME280;11754;42.664;23.594;2022-11-20T12:43:23;94820.84;;;14.95;71.34
23172;BME280;11754;42.664;23.594;2022-11-20T12:49:06;94825.75;;;14.91;71.92
23172;BME280;11754;42.664;23.594;2022-11-20T13:03:31;94754.56;;;15.58;71.54
23172;BME280;11754;42.664;23.594;2022-11-20T13:06:05;94734.69;;;15.60;71.26
23172;BME280;11754;42.664;23.594;2022-11-20T13:08:38;94724.88;;;15.61;71.75
23172;BME280;11754;42.664;23.594;2022-11-20T13:14:05;94727.97;;;15.58;72.01
23172;BME280;11754;42.664;23.594;2022-11-20T13:16:45;94721.94;;;15.44;72.51
23172;BME280;11754;42.664;23.594;2022-11-20T13:19:16;94710.75;;;15.29;73.15
23172;BME280;11754;42.664;23.594;2022-11-20T13:21:44;94732.47;;;15.26;73.52
23172;BME280;11754;42.664;23.594;2022-11-20T13:29:44;94695.00;;;15.02;74.54
23172;BME280;11754;42.664;23.594;2022-11-20T13:34:38;94710.97;;;14.89;74.30
23172;BME280;11754;42.664;23.594;2022-11-20T13:37:04;94706.13;;;14.86;74.43
23172;BME280;11754;42.664;23.594;2022-11-20T13:39:30;94724.03;;;14.97;74.42
23172;BME280;11754;42.664;23.594;2022-11-20T13:44:37;94728.84;;;15.13;74.21
23172;BME280;11754;42.664;23.594;2022-11-20T13:47:03;94711.28;;;15.12;74.17
23172;BME280;11754;42.664;23.594;2022-11-20T13:49:39;94724.91;;;15.23;73.97
23172;BME280;11754;42.664;23.594;2022-11-20T13:57:56;94726.72;;;15.29;72.83
23172;BME280;11754;42.664;23.594;2022-11-20T14:00:25;94712.47;;;15.17;74.34
23172;BME280;11754;42.664;23.594;2022-11-20T14:05:56;94695.31;;;14.81;74.85
23172;BME280;11754;42.664;23.594;2022-11-20T14:08:25;94712.63;;;14.90;74.86
23172;BME280;11754;42.664;23.594;2022-11-20T14:11:03;94707.06;;;14.98;74.83
23172;BME280;11754;42.664;23.594;2022-11-20T14:13:28;94718.25;;;15.07;74.12
23172;BME280;11754;42.664;23.594;2022-11-20T14:15:57;94728.66;;;15.08;74.06
23172;BME280;11754;42.664;23.594;2022-11-20T14:18:22;94708.22;;;15.16;74.13
23172;BME280;11754;42.664;23.594;2022-11-20T14:20:48;94688.88;;;15.02;74.52
23172;BME280;11754;42.664;23.594;2022-11-20T14:23:26;94695.84;;;14.96;74.52
23172;BME280;11754;42.664;23.594;2022-11-20T14:25:52;94697.66;;;15.02;74.70
23172;BME280;11754;42.664;23.594;2022-11-20T14:28:28;94714.09;;;15.18;74.41
23172;BME280;11754;42.664;23.594;2022-11-20T14:30:54;94704.94;;;15.13;75.02
23172;BME280;11754;42.664;23.594;2022-11-20T14:33:21;94717.47;;;15.00;75.43
23172;BME280;11754;42.664;23.594;2022-11-20T14:35:52;94715.94;;;14.79;76.28
23172;BME280;11754;42.664;23.594;2022-11-20T14:38:22;94709.00;;;14.78;76.61
23172;BME280;11754;42.664;23.594;2022-11-20T14:40:49;94725.31;;;14.81;76.51
23172;BME280;11754;42.664;23.594;2022-11-20T14:43:23;94729.41;;;14.77;76.83
23172;BME280;11754;42.664;23.594;2022-11-20T14:48:25;94711.50;;;14.66;76.43
23172;BME280;11754;42.664;23.594;2022-11-20T14:50:53;94718.25;;;14.55;76.96
23172;BME280;11754;42.664;23.594;2022-11-20T14:53:23;94733.19;;;14.43;78.10
23172;BME280;11754;42.664;23.594;2022-11-20T14:55:58;94740.13;;;14.31;78.74
23172;BME280;11754;42.664;23.594;2022-11-20T14:58:29;94731.97;;;14.32;78.68
23172;BME280;11754;42.664;23.594;2022-11-20T15:03:40;94705.69;;;14.17;79.28